createdAt,value
2023-05-04T00:00:25.868Z,48
2023-05-04T00:05:18.339Z,49
2023-05-04T00:10:21.777Z,49
2023-05-04T00:15:19.058Z,49
2023-05-04T00:20:17.417Z,49
2023-05-04T00:25:18.277Z,49
2023-05-04T00:30:17.662Z,49
2023-05-04T00:35:16.771Z,49
2023-05-04T00:40:20.022Z,49
2023-05-04T00:45:13.727Z,49
2023-05-04T00:50:18.045Z,49
2023-05-04T00:55:14.626Z,49
2023-05-04T01:00:17.929Z,49
2023-05-04T01:05:20.175Z,48
2023-05-04T01:10:24.105Z,48
2023-05-04T01:15:13.943Z,48
2023-05-04T01:20:19.931Z,47
2023-05-04T01:25:17.736Z,48
2023-05-04T01:30:19.992Z,48
2023-05-04T01:35:13.845Z,47
2023-05-04T01:40:15.053Z,48
2023-05-04T01:45:20.015Z,48
2023-05-04T01:50:17.386Z,48
2023-05-04T01:55:18.246Z,48
2023-05-04T02:00:19.528Z,48
2023-05-04T02:05:16.787Z,48
2023-05-04T02:10:25.983Z,48
2023-05-04T02:15:13.702Z,48
2023-05-04T02:20:18.293Z,48
2023-05-04T02:25:20.077Z,48
2023-05-04T02:30:15.155Z,48
2023-05-04T02:35:16.094Z,48
2023-05-04T02:40:27.830Z,47
2023-05-04T02:45:15.679Z,48
2023-05-04T02:50:24.391Z,48
2023-05-04T02:55:18.480Z,47
2023-05-04T03:00:19.560Z,47
2023-05-04T03:05:20.779Z,48
2023-05-04T03:10:20.169Z,48
2023-05-04T03:15:17.896Z,48
2023-05-04T03:20:15.671Z,48
2023-05-04T03:25:14.816Z,48
2023-05-04T03:30:17.443Z,48
2023-05-04T03:35:27.764Z,48
2023-05-04T03:40:26.380Z,48
2023-05-04T03:45:25.884Z,48
2023-05-04T03:50:21.236Z,48
2023-05-04T03:55:14.275Z,48
2023-05-04T04:00:21.498Z,46
2023-05-04T04:05:24.555Z,47
2023-05-04T04:10:15.650Z,49
2023-05-04T04:15:16.519Z,49
2023-05-04T04:20:25.897Z,48
2023-05-04T04:25:19.656Z,50
2023-05-04T04:30:26.909Z,50
2023-05-04T04:35:13.592Z,51
2023-05-04T04:40:30.338Z,52
2023-05-04T04:45:18.333Z,51
2023-05-04T04:50:26.434Z,50
2023-05-04T04:55:16.555Z,51
2023-05-04T05:00:16.097Z,51
2023-05-04T05:05:31.772Z,50
2023-05-04T05:10:19.758Z,54
2023-05-04T05:15:17.695Z,53
2023-05-04T05:20:17.145Z,53
2023-05-04T05:25:15.991Z,52
2023-05-04T05:30:15.809Z,52
2023-05-04T05:35:14.047Z,52
2023-05-04T05:40:15.003Z,52
2023-05-04T05:45:15.976Z,51
2023-05-04T05:50:16.885Z,52
2023-05-04T05:55:16.961Z,52
2023-05-04T06:00:18.677Z,52
2023-05-04T06:05:15.109Z,52
2023-05-04T06:10:19.415Z,51
2023-05-04T06:15:14.310Z,52
2023-05-04T06:20:17.285Z,52
2023-05-04T06:25:21.698Z,50
2023-05-04T06:30:16.380Z,51
2023-05-04T06:35:20.626Z,52
2023-05-04T06:40:14.487Z,51
2023-05-04T06:45:14.612Z,51
2023-05-04T06:50:17.867Z,50
2023-05-04T06:55:13.823Z,51
2023-05-04T07:00:21.818Z,52
2023-05-04T07:05:16.544Z,52
2023-05-04T07:10:19.809Z,52
2023-05-04T07:15:20.757Z,52
2023-05-04T07:20:16.400Z,52
2023-05-04T07:25:16.376Z,52
2023-05-04T07:30:17.896Z,52
2023-05-04T07:35:18.016Z,50
2023-05-04T07:40:20.181Z,50
2023-05-04T07:45:18.082Z,51
2023-05-04T07:50:17.498Z,51
2023-05-04T07:55:16.771Z,51
2023-05-04T08:00:28.041Z,51
2023-05-04T08:05:15.867Z,52
2023-05-04T08:10:15.331Z,51
2023-05-04T08:15:18.046Z,51
2023-05-04T08:20:16.291Z,51
2023-05-04T08:25:15.605Z,50
2023-05-04T08:30:28.570Z,50
2023-05-04T08:35:21.757Z,52
2023-05-04T08:40:20.690Z,51
2023-05-04T08:45:20.358Z,50
2023-05-04T08:50:16.205Z,51
2023-05-04T08:55:17.219Z,51
2023-05-04T09:00:28.438Z,51
2023-05-04T09:05:17.737Z,52
2023-05-04T09:10:18.612Z,52
2023-05-04T09:15:22.090Z,51
2023-05-04T09:20:20.219Z,51
2023-05-04T09:25:17.225Z,47
2023-05-04T09:30:14.365Z,48
2023-05-04T09:35:33.926Z,49
2023-05-04T09:40:18.692Z,50
2023-05-04T09:45:18.813Z,50
2023-05-04T09:50:22.800Z,50
2023-05-04T09:55:16.739Z,51
2023-05-04T10:00:16.742Z,52
2023-05-04T10:05:19.868Z,51
2023-05-04T10:10:15.972Z,52
2023-05-04T10:15:17.182Z,52
2023-05-04T10:20:15.597Z,53
2023-05-04T10:25:17.940Z,52
2023-05-04T10:30:13.995Z,54
2023-05-04T10:35:15.386Z,53
2023-05-04T10:40:14.910Z,53
2023-05-04T10:45:18.133Z,54
2023-05-04T10:50:16.503Z,53
2023-05-04T10:55:17.722Z,53
2023-05-04T11:00:17.310Z,53
2023-05-04T11:05:18.126Z,52
2023-05-04T11:10:18.592Z,54
2023-05-04T11:15:20.830Z,53
2023-05-04T11:20:15.797Z,52
2023-05-04T11:25:15.621Z,53
2023-05-04T11:30:14.633Z,53
2023-05-04T11:35:28.795Z,51
2023-05-04T11:40:23.308Z,52
2023-05-04T11:45:19.562Z,51
2023-05-04T11:50:18.523Z,51
2023-05-04T11:55:17.089Z,52
2023-05-04T12:00:16.644Z,52
2023-05-04T12:05:18.283Z,52
2023-05-04T12:10:14.108Z,52
2023-05-04T12:15:20.357Z,51
2023-05-04T12:20:16.870Z,51
2023-05-04T12:25:20.251Z,51
2023-05-04T12:30:16.547Z,51
2023-05-04T12:35:18.383Z,51
2023-05-04T12:40:44.665Z,50
2023-05-04T12:45:20.971Z,51
2023-05-04T12:50:27.939Z,51
2023-05-04T12:55:17.753Z,50
2023-05-04T13:00:14.689Z,51
2023-05-04T13:05:24.099Z,51
2023-05-04T13:10:22.038Z,51
2023-05-04T13:15:16.288Z,51
2023-05-04T13:20:19.058Z,52
2023-05-04T13:25:21.962Z,51
2023-05-04T13:30:15.901Z,50
2023-05-04T13:35:15.848Z,50
2023-05-04T13:40:19.815Z,52
2023-05-04T13:45:20.523Z,51
2023-05-04T13:50:24.398Z,50
2023-05-04T13:55:18.667Z,50
2023-05-04T14:00:24.483Z,51
2023-05-04T14:05:18.239Z,50
2023-05-04T14:10:20.074Z,48
2023-05-04T14:15:16.232Z,48
2023-05-04T14:20:19.065Z,49
2023-05-04T14:25:15.950Z,47
2023-05-04T14:30:15.812Z,48
2023-05-04T14:35:15.599Z,48
2023-05-04T14:40:19.090Z,49
2023-05-04T14:45:17.938Z,48
2023-05-04T14:50:13.931Z,48
2023-05-04T14:55:15.825Z,47
2023-05-04T15:00:20.000Z,47
2023-05-04T15:05:20.089Z,48
2023-05-04T15:10:20.205Z,48
2023-05-04T15:15:22.255Z,46
2023-05-04T15:20:14.620Z,47
2023-05-04T15:25:20.875Z,47
2023-05-04T15:30:18.154Z,44
2023-05-04T15:35:22.083Z,43
2023-05-04T15:40:18.015Z,42
2023-05-04T15:45:15.834Z,43
2023-05-04T15:50:17.813Z,45
2023-05-04T15:55:40.361Z,45
2023-05-04T16:00:22.639Z,46
2023-05-04T16:05:22.225Z,47
2023-05-04T16:10:16.315Z,47
2023-05-04T16:15:16.300Z,47
2023-05-04T16:20:17.299Z,48
2023-05-04T16:25:14.318Z,47
2023-05-04T16:30:26.461Z,46
2023-05-04T16:35:16.243Z,45
2023-05-04T16:40:18.631Z,44
2023-05-04T16:45:17.149Z,47
2023-05-04T16:50:14.855Z,47
2023-05-04T16:55:18.217Z,45
2023-05-04T17:00:15.335Z,46
2023-05-04T17:05:16.813Z,47
2023-05-04T17:10:19.930Z,47
2023-05-04T17:15:17.840Z,48
2023-05-04T17:20:13.912Z,49
2023-05-04T17:25:13.960Z,48
2023-05-04T17:30:14.038Z,47
2023-05-04T17:35:44.125Z,47
2023-05-04T17:40:18.313Z,47
2023-05-04T17:45:18.401Z,47
2023-05-04T17:50:20.896Z,48
2023-05-04T17:55:15.854Z,48
2023-05-04T18:00:16.284Z,48
2023-05-04T18:05:18.212Z,50
2023-05-04T18:10:26.111Z,50
2023-05-04T18:15:16.098Z,50
2023-05-04T18:20:20.251Z,50
2023-05-04T18:25:20.269Z,50
2023-05-04T18:30:14.330Z,49
2023-05-04T18:35:16.102Z,50
2023-05-04T18:40:27.969Z,51
2023-05-04T18:45:17.879Z,50
2023-05-04T18:50:17.912Z,50
2023-05-04T18:55:15.911Z,50
2023-05-04T19:00:13.904Z,49
2023-05-04T19:05:18.192Z,49
2023-05-04T19:10:14.137Z,49
2023-05-04T19:15:14.329Z,47
2023-05-04T19:20:22.251Z,48
2023-05-04T19:25:34.639Z,48
2023-05-04T19:30:20.367Z,47
2023-05-04T19:35:21.433Z,47
2023-05-04T19:40:20.425Z,48
2023-05-04T19:45:23.857Z,47
2023-05-04T19:50:23.991Z,46
2023-05-04T19:55:25.266Z,47
2023-05-04T20:00:16.363Z,47
2023-05-04T20:05:16.216Z,48
2023-05-04T20:10:32.744Z,48
2023-05-04T20:15:23.594Z,48
2023-05-04T20:20:28.602Z,47
2023-05-04T20:25:21.616Z,48
2023-05-04T20:30:20.844Z,47
2023-05-04T20:35:24.477Z,48
2023-05-04T20:40:18.388Z,48
2023-05-04T20:45:19.303Z,48
2023-05-04T20:50:16.531Z,48
2023-05-04T20:55:21.449Z,47
2023-05-04T21:00:18.960Z,48
2023-05-04T21:05:15.994Z,48
2023-05-04T21:10:17.931Z,48
2023-05-04T21:15:14.307Z,48
2023-05-04T21:20:24.549Z,48
2023-05-04T21:25:28.303Z,48
2023-05-04T21:30:16.579Z,48
2023-05-04T21:35:29.527Z,48
2023-05-04T21:40:14.801Z,48
2023-05-04T21:45:19.680Z,48
2023-05-04T21:50:17.311Z,48
2023-05-04T21:55:21.362Z,48
2023-05-04T22:00:16.191Z,48
2023-05-04T22:05:16.010Z,47
2023-05-04T22:10:17.906Z,47
2023-05-04T22:15:19.116Z,49
2023-05-04T22:20:16.012Z,48
2023-05-04T22:25:23.222Z,48
2023-05-04T22:30:22.157Z,49
2023-05-04T22:35:19.139Z,49
2023-05-04T22:40:16.216Z,48
2023-05-04T22:45:18.074Z,49
2023-05-04T22:50:18.707Z,49
2023-05-04T22:55:20.467Z,48
2023-05-04T23:00:24.831Z,49
2023-05-04T23:05:19.849Z,49
2023-05-04T23:10:15.933Z,49
2023-05-04T23:15:18.444Z,49
2023-05-04T23:20:18.922Z,49
2023-05-04T23:25:13.912Z,48
2023-05-04T23:30:18.112Z,48
2023-05-04T23:35:16.487Z,47
2023-05-04T23:40:16.659Z,47
2023-05-04T23:45:14.773Z,48
2023-05-04T23:50:21.041Z,48
2023-05-04T23:55:14.314Z,48
